Time;durP1;ratioP1;P1;durP2;ratioP2;P2;SDS_P1;SDS_P2;PMS_P1;PMS_P2;Temp;Humidity;BMP_temperature;BMP_pressure;BME280_temperature;BME280_humidity;BME280_pressure;Samples;Min_cycle;Max_cycle;Signal;HPM_P1;HPM_P2
2021/10/21 00:02:14;;;;;;;10.70;5.10;;;;;;;7.96;73.99;101159.31;30698309;28;20055;-74
2021/10/21 00:17:16;;;;;;;9.60;4.90;;;;;;;8.02;75.54;101133.47;30705063;28;20507;-75
2021/10/21 00:32:18;;;;;;;9.67;5.10;;;;;;;7.99;77.17;101123.41;30674118;28;20062;-75
2021/10/21 00:47:20;;;;;;;12.77;6.43;;;;;;;7.92;77.63;101109.84;30696569;28;20055;-74
2021/10/21 01:02:22;;;;;;;10.97;6.03;;;;;;;7.87;79.18;101082.00;30681064;28;20062;-74
2021/10/21 01:17:24;;;;;;;13.10;5.50;;;;;;;7.85;79.90;101065.38;30684313;28;20117;-75
2021/10/21 01:32:27;;;;;;;9.77;5.13;;;;;;;7.81;82.52;101059.16;30678052;28;20100;-74
2021/10/21 01:47:29;;;;;;;12.57;5.80;;;;;;;7.84;83.48;101063.81;30678119;28;20098;-75
2021/10/21 02:02:31;;;;;;;13.53;7.47;;;;;;;7.96;84.35;101067.38;30669837;28;20097;-74
2021/10/21 02:17:33;;;;;;;15.90;7.30;;;;;;;8.11;84.74;101055.50;30673755;28;20063;-75
2021/10/21 02:32:35;;;;;;;12.33;7.10;;;;;;;8.21;85.55;101038.56;30686674;28;20077;-74
2021/10/21 02:47:37;;;;;;;11.43;5.87;;;;;;;8.27;85.57;101037.00;30674304;28;20060;-74
2021/10/21 03:02:39;;;;;;;12.43;7.43;;;;;;;8.33;85.23;101049.06;30699493;28;20396;-75
2021/10/21 03:17:42;;;;;;;16.10;7.23;;;;;;;8.40;85.92;101029.38;30692486;28;20055;-75
2021/10/21 03:32:44;;;;;;;19.30;9.50;;;;;;;8.48;87.75;100999.28;30686744;28;20133;-76
2021/10/21 03:47:46;;;;;;;15.07;8.23;;;;;;;8.57;88.64;101006.25;30684431;28;20052;-75
2021/10/21 04:02:48;;;;;;;14.20;7.67;;;;;;;8.62;91.72;100997.75;30688906;28;20074;-74
2021/10/21 04:17:50;;;;;;;14.93;7.60;;;;;;;8.68;90.66;100996.22;30684102;28;20103;-74
2021/10/21 04:32:52;;;;;;;17.03;8.20;;;;;;;8.81;91.31;100997.41;30683040;28;20079;-74
2021/10/21 04:47:56;;;;;;;16.07;8.87;;;;;;;9.18;90.21;101013.31;30710158;28;20048;-75
2021/10/21 05:03:06;;;;;;;14.50;8.30;;;;;;;9.67;89.46;101001.69;30760788;28;20395;-74
2021/10/21 05:18:08;;;;;;;13.47;8.13;;;;;;;10.69;85.99;100996.28;30770918;28;20135;-74
2021/10/21 05:33:10;;;;;;;15.13;7.87;;;;;;;10.91;85.08;101009.31;30745078;28;20085;-78
2021/10/21 05:48:13;;;;;;;18.77;7.97;;;;;;;11.15;83.59;101010.31;30751020;28;20055;-77
2021/10/21 06:03:15;;;;;;;16.80;7.57;;;;;;;11.90;81.85;100991.41;30763818;28;20570;-72
2021/10/21 06:18:16;;;;;;;11.30;6.73;;;;;;;13.32;74.67;100970.38;30765974;28;20055;-76
2021/10/21 06:33:18;;;;;;;11.40;6.37;;;;;;;15.09;68.88;100943.28;30774167;28;20510;-74
2021/10/21 06:48:20;;;;;;;11.77;5.43;;;;;;;16.39;62.57;100940.13;30824632;28;20477;-76
2021/10/21 07:03:22;;;;;;;12.38;6.25;;;;;;;17.17;59.91;100931.41;30755660;28;20065;-74
2021/10/21 07:18:24;;;;;;;9.90;5.50;;;;;;;17.63;57.10;100916.84;30756818;28;20163;-76
2021/10/21 07:33:27;;;;;;;13.43;5.40;;;;;;;18.35;53.98;100903.97;30778156;28;20050;-75
2021/10/21 07:48:29;;;;;;;14.82;4.97;;;;;;;18.43;52.14;100902.47;30778451;28;20130;-74
2021/10/21 08:03:31;;;;;;;8.98;4.35;;;;;;;18.87;50.69;100877.56;30770338;28;20058;-74
2021/10/21 08:18:34;;;;;;;13.55;4.82;;;;;;;18.88;49.07;100857.09;30789867;28;20077;-74
2021/10/21 08:33:35;;;;;;;15.05;4.30;;;;;;;19.80;46.36;100853.06;30766286;28;20065;-75
2021/10/21 08:48:41;;;;;;;13.68;3.67;;;;;;;19.68;45.69;100845.72;30796914;28;20397;-74
2021/10/21 09:04:15;;;;;;;16.67;4.45;;;;;;;19.19;45.55;100805.41;30776748;28;20051;-75
2021/10/21 09:19:17;;;;;;;8.37;3.30;;;;;;;20.42;41.70;100791.84;30780165;28;20116;-76
2021/10/21 09:34:44;;;;;;;11.27;3.13;;;;;;;20.67;40.68;100772.06;30793009;28;20042;-75
2021/10/21 09:49:53;;;;;;;5.95;2.92;;;;;;;21.36;38.91;100768.06;30771490;28;20407;-76
2021/10/21 10:04:57;;;;;;;8.68;3.13;;;;;;;20.72;38.95;100740.31;30793177;28;20066;-75
2021/10/21 10:19:59;;;;;;;12.80;2.53;;;;;;;20.16;39.64;100708.06;30802416;28;20446;-75
2021/10/21 10:35:05;;;;;;;5.47;2.55;;;;;;;20.52;38.98;100674.75;30764322;28;20062;-74
2021/10/21 10:50:29;;;;;;;7.80;2.80;;;;;;;20.42;39.48;100673.28;30759846;28;20106;-74
2021/10/21 11:05:52;;;;;;;5.13;2.70;;;;;;;20.10;38.95;100642.56;30763483;28;20047;-74
2021/10/21 11:20:55;;;;;;;9.80;5.47;;;;;;;19.57;39.22;100641.69;30758002;28;20514;-76
2021/10/21 11:36:01;;;;;;;8.63;4.80;;;;;;;19.77;38.57;100606.06;30762255;28;20110;-75
2021/10/21 11:51:09;;;;;;;11.20;3.60;;;;;;;21.09;36.69;100586.13;30780814;28;20109;-75
2021/10/21 12:06:14;;;;;;;6.03;3.65;;;;;;;21.20;36.06;100539.41;30797589;28;20423;-75
2021/10/21 12:21:16;;;;;;;10.32;4.32;;;;;;;18.33;41.30;100560.13;30789503;28;20090;-76
2021/10/21 12:36:21;;;;;;;10.35;2.63;;;;;;;17.43;44.18;100550.59;30778706;28;20083;-76
2021/10/21 12:51:22;;;;;;;;;;;;;;;17.12;43.41;100520.50;30783485;28;20050;-75
2021/10/21 13:06:24;;;;;;;2.60;1.50;;;;;;;17.13;43.24;100517.28;30751956;28;19929;-76
2021/10/21 13:21:26;;;;;;;7.10;1.80;;;;;;;16.80;42.24;100494.31;30761483;28;20149;-76
2021/10/21 13:36:28;;;;;;;9.27;1.98;;;;;;;16.61;43.94;100493.47;30785040;28;20047;-75
2021/10/21 13:51:31;;;;;;;5.63;2.95;;;;;;;16.37;46.76;100454.81;30738275;28;20051;-75
2021/10/21 14:06:33;;;;;;;5.95;2.38;;;;;;;16.20;47.08;100469.97;30774351;28;20048;-76
2021/10/21 14:21:35;;;;;;;5.90;2.40;;;;;;;15.92;48.39;100447.88;30767888;28;20059;-75
2021/10/21 14:36:37;;;;;;;5.70;2.50;;;;;;;15.62;49.65;100452.06;30775751;28;20047;-75
2021/10/21 14:51:41;;;;;;;13.18;3.60;;;;;;;15.29;52.57;100448.88;30766113;28;20054;-77
2021/10/21 15:37:07;;;;;;;12.80;6.30;;;;;;;14.56;59.18;100442.63;30795502;28;20062;-76
2021/10/21 16:23:01;;;;;;;7.97;5.37;;;;;;;13.66;65.54;100453.78;30741776;28;20066;-74
2021/10/21 16:38:04;;;;;;;9.43;4.63;;;;;;;13.35;64.72;100430.81;30767043;28;20138;-76
2021/10/21 16:53:27;;;;;;;13.37;6.10;;;;;;;13.16;68.14;100435.97;30754446;28;20686;-76
2021/10/21 17:08:29;;;;;;;8.60;4.53;;;;;;;13.06;69.33;100433.47;30729455;28;20044;-74
2021/10/21 17:23:33;;;;;;;16.40;4.47;;;;;;;12.89;70.18;100429.97;30751303;28;20053;-74
2021/10/21 17:38:35;;;;;;;8.00;3.33;;;;;;;12.70;71.30;100406.31;30741259;28;20058;-76
2021/10/21 17:53:38;;;;;;;9.70;4.07;;;;;;;12.70;72.62;100406.31;30737609;28;20085;-75
2021/10/21 18:08:40;;;;;;;10.80;4.17;;;;;;;12.49;74.59;100393.97;30755451;28;21524;-75
2021/10/21 18:23:45;;;;;;;9.43;4.63;;;;;;;12.26;74.70;100378.53;30746943;28;20059;-78
2021/10/21 18:38:47;;;;;;;7.53;4.00;;;;;;;12.00;76.19;100374.81;30783445;28;20071;-74
2021/10/21 18:53:49;;;;;;;10.17;5.13;;;;;;;11.62;77.76;100385.25;30776432;28;20118;-76
2021/10/21 19:08:52;;;;;;;11.47;5.57;;;;;;;11.26;76.90;100358.75;30760980;28;20058;-74
2021/10/21 19:23:54;;;;;;;11.17;6.30;;;;;;;10.93;75.82;100346.13;30772344;28;20141;-77
2021/10/21 19:38:56;;;;;;;7.67;4.00;;;;;;;10.85;75.96;100333.88;30753275;28;20065;-76
2021/10/21 19:53:59;;;;;;;14.47;7.00;;;;;;;10.68;76.84;100318.63;30764957;28;20086;-74
2021/10/21 20:09:01;;;;;;;16.03;6.23;;;;;;;10.48;77.56;100315.84;30769539;28;20055;-74
2021/10/21 20:24:04;;;;;;;8.37;4.40;;;;;;;10.38;80.87;100312.16;30788513;28;20055;-75
2021/10/21 20:39:06;;;;;;;10.13;5.67;;;;;;;10.37;82.31;100283.47;30756339;28;20454;-75
2021/10/21 20:54:10;;;;;;;11.63;5.33;;;;;;;10.23;83.30;100251.88;30733766;28;20055;-74
2021/10/21 21:09:12;;;;;;;12.77;6.10;;;;;;;10.14;84.78;100256.28;30739377;28;20471;-75
2021/10/21 21:24:15;;;;;;;13.30;4.80;;;;;;;10.26;85.70;100261.16;30734135;28;20059;-74
2021/10/21 21:39:17;;;;;;;9.57;4.03;;;;;;;10.43;85.41;100254.66;30773573;28;20414;-74
2021/10/21 21:54:19;;;;;;;12.80;4.87;;;;;;;10.54;85.46;100249.84;30744475;28;20078;-75
2021/10/21 22:09:24;;;;;;;7.43;4.30;;;;;;;10.73;86.91;100236.72;30742041;28;20559;-74
2021/10/21 22:24:26;;;;;;;11.03;5.03;;;;;;;10.90;88.50;100211.16;30751235;28;20076;-74
2021/10/21 22:39:28;;;;;;;8.77;4.77;;;;;;;10.89;89.27;100202.25;30762258;28;20514;-74
2021/10/21 22:54:50;;;;;;;12.20;4.60;;;;;;;10.87;90.08;100191.03;30764665;28;20055;-74
2021/10/21 23:09:53;;;;;;;10.13;5.73;;;;;;;10.88;89.78;100197.22;30779490;28;20065;-74
2021/10/21 23:24:55;;;;;;;11.13;5.30;;;;;;;10.99;89.85;100178.78;30802520;28;20070;-73
2021/10/21 23:39:57;;;;;;;12.57;5.10;;;;;;;11.09;90.75;100172.38;30773377;28;20051;-74
2021/10/21 23:54:59;;;;;;;8.77;3.67;;;;;;;11.11;90.49;100133.91;30772341;28;20884;-74
